Rothes, United Kingdom
Current Conditions -  °F | °C
As of 1:50 AM on Tuesday 25 Nov 2014 (Local Time) from EGQS Reporting Station
Few Clouds Few Clouds  
Wind Chill: 34°   Ceiling: Unl
Heat Index: 39°   Visibility: 6mi
Dew Point: 37°   Wind: 8mph
Humidity: 93%   Direction: 240°WSW
Pressure: 30.18"   Gusts: NA
Location:  57.53°N, 3.21°W
Report Text: EGQS 250150Z 24007KT 9999 FEW040 04/03 Q1022 BLU
Loading
Personal Weather Stations






























Interactive Weather Map New forecast layout! Learn more

10-Day Weather Forecast

Advertisements
Track Severe Weather on mobile